sensor_id;sensor_type;location;lat;lon;timestamp;pressure;altitude;pressure_sealevel;temperature;humidity
54512;BME280;40419;47.438;19.026;2022-07-05T00:01:50;99758.34;;;25.50;51.64
54512;BME280;40419;47.438;19.026;2022-07-05T00:04:18;99764.34;;;25.57;52.01
54512;BME280;40419;47.438;19.026;2022-07-05T00:06:44;99757.44;;;25.54;52.80
54512;BME280;40419;47.438;19.026;2022-07-05T00:09:30;99763.22;;;25.58;52.89
54512;BME280;40419;47.438;19.026;2022-07-05T00:11:58;99758.78;;;25.57;53.53
54512;BME280;40419;47.438;19.026;2022-07-05T00:16:58;99768.53;;;25.54;53.85
54512;BME280;40419;47.438;19.026;2022-07-05T00:19:26;99766.34;;;25.37;54.32
54512;BME280;40419;47.438;19.026;2022-07-05T00:21:56;99758.94;;;25.33;54.98
54512;BME280;40419;47.438;19.026;2022-07-05T00:24:25;99763.41;;;25.28;55.48
54512;BME280;40419;47.438;19.026;2022-07-05T00:26:51;99748.47;;;25.29;55.30
54512;BME280;40419;47.438;19.026;2022-07-05T00:29:19;99741.41;;;25.18;55.87
54512;BME280;40419;47.438;19.026;2022-07-05T00:31:49;99741.59;;;25.41;55.39
54512;BME280;40419;47.438;19.026;2022-07-05T00:34:17;99736.91;;;25.22;56.02
54512;BME280;40419;47.438;19.026;2022-07-05T00:36:47;99721.31;;;25.12;55.82
54512;BME280;40419;47.438;19.026;2022-07-05T00:39:13;99728.72;;;25.17;56.00
54512;BME280;40419;47.438;19.026;2022-07-05T00:41:41;99731.97;;;25.05;56.64
54512;BME280;40419;47.438;19.026;2022-07-05T00:44:27;99732.28;;;24.85;57.19
54512;BME280;40419;47.438;19.026;2022-07-05T00:46:53;99726.94;;;25.07;56.74
54512;BME280;40419;47.438;19.026;2022-07-05T00:49:21;99729.69;;;25.07;57.14
54512;BME280;40419;47.438;19.026;2022-07-05T00:51:46;99741.28;;;24.76;58.16
54512;BME280;40419;47.438;19.026;2022-07-05T00:54:15;99739.78;;;24.84;57.79
54512;BME280;40419;47.438;19.026;2022-07-05T00:56:43;99731.88;;;24.77;58.21
54512;BME280;40419;47.438;19.026;2022-07-05T00:59:11;99730.56;;;24.70;58.56
54512;BME280;40419;47.438;19.026;2022-07-05T01:01:39;99737.66;;;24.57;58.95
54512;BME280;40419;47.438;19.026;2022-07-05T01:04:05;99738.03;;;24.50;59.14
54512;BME280;40419;47.438;19.026;2022-07-05T01:06:34;99719.84;;;24.44;59.53
54512;BME280;40419;47.438;19.026;2022-07-05T01:09:00;99717.63;;;24.46;58.63
54512;BME280;40419;47.438;19.026;2022-07-05T01:11:26;99724.50;;;24.49;58.65
54512;BME280;40419;47.438;19.026;2022-07-05T01:13:54;99728.41;;;24.48;58.09
54512;BME280;40419;47.438;19.026;2022-07-05T01:16:25;99724.34;;;24.40;58.20
54512;BME280;40419;47.438;19.026;2022-07-05T01:18:51;99728.50;;;24.62;57.61
54512;BME280;40419;47.438;19.026;2022-07-05T01:21:21;99726.91;;;24.55;57.60
54512;BME280;40419;47.438;19.026;2022-07-05T01:23:48;99725.84;;;24.51;57.08
54512;BME280;40419;47.438;19.026;2022-07-05T01:26:17;99724.38;;;24.59;56.41
54512;BME280;40419;47.438;19.026;2022-07-05T01:28:51;99718.53;;;24.61;56.13
54512;BME280;40419;47.438;19.026;2022-07-05T01:31:16;99720.41;;;24.65;55.88
54512;BME280;40419;47.438;19.026;2022-07-05T01:33:46;99729.47;;;24.71;55.64
54512;BME280;40419;47.438;19.026;2022-07-05T01:36:15;99731.09;;;24.72;55.37
54512;BME280;40419;47.438;19.026;2022-07-05T01:38:43;99725.88;;;24.70;55.46
54512;BME280;40419;47.438;19.026;2022-07-05T01:41:11;99726.84;;;24.80;54.74
54512;BME280;40419;47.438;19.026;2022-07-05T01:43:39;99726.63;;;24.76;54.84
54512;BME280;40419;47.438;19.026;2022-07-05T01:46:10;99729.66;;;24.55;55.66
54512;BME280;40419;47.438;19.026;2022-07-05T01:48:39;99731.38;;;24.51;56.25
54512;BME280;40419;47.438;19.026;2022-07-05T01:51:16;99724.63;;;24.57;55.25
54512;BME280;40419;47.438;19.026;2022-07-05T01:53:46;99722.19;;;24.37;55.66
54512;BME280;40419;47.438;19.026;2022-07-05T01:56:13;99716.78;;;24.27;55.66
54512;BME280;40419;47.438;19.026;2022-07-05T01:58:41;99723.28;;;24.17;56.37
54512;BME280;40419;47.438;19.026;2022-07-05T02:01:07;99726.97;;;24.31;55.88
54512;BME280;40419;47.438;19.026;2022-07-05T02:03:39;99723.09;;;24.32;55.65
54512;BME280;40419;47.438;19.026;2022-07-05T02:06:05;99732.41;;;24.36;55.50
54512;BME280;40419;47.438;19.026;2022-07-05T02:08:34;99717.25;;;24.53;54.63
54512;BME280;40419;47.438;19.026;2022-07-05T02:11:03;99721.66;;;24.54;54.08
54512;BME280;40419;47.438;19.026;2022-07-05T02:13:29;99717.22;;;24.58;53.55
54512;BME280;40419;47.438;19.026;2022-07-05T02:15:58;99724.13;;;24.55;53.62
54512;BME280;40419;47.438;19.026;2022-07-05T02:18:23;99715.41;;;24.67;53.05
54512;BME280;40419;47.438;19.026;2022-07-05T02:20:55;99711.44;;;24.73;52.43
54512;BME280;40419;47.438;19.026;2022-07-05T02:23:20;99709.94;;;24.62;53.55
54512;BME280;40419;47.438;19.026;2022-07-05T02:25:49;99706.94;;;24.58;53.76
54512;BME280;40419;47.438;19.026;2022-07-05T02:28:17;99704.34;;;24.67;52.79
54512;BME280;40419;47.438;19.026;2022-07-05T02:30:46;99698.09;;;24.56;53.31
54512;BME280;40419;47.438;19.026;2022-07-05T02:33:12;99693.84;;;24.45;53.48
54512;BME280;40419;47.438;19.026;2022-07-05T02:35:40;99680.94;;;24.59;52.99
54512;BME280;40419;47.438;19.026;2022-07-05T02:38:10;99681.50;;;24.37;54.21
54512;BME280;40419;47.438;19.026;2022-07-05T02:40:39;99694.94;;;24.44;54.15
54512;BME280;40419;47.438;19.026;2022-07-05T02:43:08;99694.78;;;24.59;53.52
54512;BME280;40419;47.438;19.026;2022-07-05T02:45:34;99701.94;;;24.61;53.60
54512;BME280;40419;47.438;19.026;2022-07-05T02:48:02;99699.72;;;24.57;53.82
54512;BME280;40419;47.438;19.026;2022-07-05T02:50:32;99705.97;;;24.68;53.42
54512;BME280;40419;47.438;19.026;2022-07-05T02:53:02;99710.31;;;24.74;53.77
54512;BME280;40419;47.438;19.026;2022-07-05T02:55:27;99704.69;;;24.61;53.49
54512;BME280;40419;47.438;19.026;2022-07-05T02:57:56;99702.28;;;24.54;54.10
54512;BME280;40419;47.438;19.026;2022-07-05T03:00:28;99701.19;;;24.55;53.95
54512;BME280;40419;47.438;19.026;2022-07-05T03:02:56;99697.88;;;24.53;54.00
54512;BME280;40419;47.438;19.026;2022-07-05T03:05:27;99697.53;;;24.59;54.06
54512;BME280;40419;47.438;19.026;2022-07-05T03:07:58;99700.97;;;24.70;54.01
54512;BME280;40419;47.438;19.026;2022-07-05T03:10:25;99704.78;;;24.74;53.80
54512;BME280;40419;47.438;19.026;2022-07-05T03:12:55;99700.88;;;24.75;53.82
54512;BME280;40419;47.438;19.026;2022-07-05T03:15:26;99700.13;;;24.70;54.49
54512;BME280;40419;47.438;19.026;2022-07-05T03:17:54;99697.44;;;24.65;54.31
54512;BME280;40419;47.438;19.026;2022-07-05T03:20:22;99693.13;;;24.58;54.44
54512;BME280;40419;47.438;19.026;2022-07-05T03:22:54;99693.50;;;24.85;53.74
54512;BME280;40419;47.438;19.026;2022-07-05T03:25:28;99688.34;;;24.64;54.66
54512;BME280;40419;47.438;19.026;2022-07-05T03:28:01;99684.72;;;24.45;55.16
54512;BME280;40419;47.438;19.026;2022-07-05T03:30:27;99682.91;;;24.54;54.52
54512;BME280;40419;47.438;19.026;2022-07-05T03:32:53;99680.97;;;24.54;54.72
54512;BME280;40419;47.438;19.026;2022-07-05T03:35:23;99687.84;;;24.57;55.15
54512;BME280;40419;47.438;19.026;2022-07-05T03:37:51;99694.69;;;24.65;54.97
54512;BME280;40419;47.438;19.026;2022-07-05T03:40:22;99700.38;;;24.73;54.66
54512;BME280;40419;47.438;19.026;2022-07-05T03:42:53;99701.91;;;24.80;54.33
54512;BME280;40419;47.438;19.026;2022-07-05T03:45:21;99699.16;;;24.80;54.67
54512;BME280;40419;47.438;19.026;2022-07-05T03:47:46;99712.47;;;24.77;54.41
54512;BME280;40419;47.438;19.026;2022-07-05T03:50:14;99713.59;;;24.76;54.83
54512;BME280;40419;47.438;19.026;2022-07-05T03:52:41;99721.66;;;24.73;54.93
54512;BME280;40419;47.438;19.026;2022-07-05T03:55:07;99721.84;;;24.63;56.00
54512;BME280;40419;47.438;19.026;2022-07-05T03:57:33;99722.16;;;24.56;55.45
54512;BME280;40419;47.438;19.026;2022-07-05T04:00:06;99722.34;;;24.65;54.97
54512;BME280;40419;47.438;19.026;2022-07-05T04:02:41;99721.47;;;24.69;54.59
54512;BME280;40419;47.438;19.026;2022-07-05T04:05:11;99721.47;;;25.02;53.20
54512;BME280;40419;47.438;19.026;2022-07-05T04:07:53;99724.09;;;25.12;51.97
54512;BME280;40419;47.438;19.026;2022-07-05T04:10:23;99721.91;;;25.09;52.58
54512;BME280;40419;47.438;19.026;2022-07-05T04:12:49;99722.72;;;25.10;52.57
54512;BME280;40419;47.438;19.026;2022-07-05T04:15:19;99727.28;;;24.87;54.58
54512;BME280;40419;47.438;19.026;2022-07-05T04:17:49;99727.19;;;24.92;52.94
54512;BME280;40419;47.438;19.026;2022-07-05T04:20:18;99725.53;;;24.91;53.00
54512;BME280;40419;47.438;19.026;2022-07-05T04:22:50;99718.81;;;24.97;52.45
54512;BME280;40419;47.438;19.026;2022-07-05T04:25:17;99717.22;;;24.91;52.90
54512;BME280;40419;47.438;19.026;2022-07-05T04:27:47;99720.84;;;24.91;53.75
54512;BME280;40419;47.438;19.026;2022-07-05T04:30:13;99720.13;;;25.00;52.86
54512;BME280;40419;47.438;19.026;2022-07-05T04:32:40;99724.16;;;25.07;53.00
54512;BME280;40419;47.438;19.026;2022-07-05T04:35:11;99717.81;;;25.07;53.71
54512;BME280;40419;47.438;19.026;2022-07-05T04:37:41;99730.03;;;25.20;54.25
54512;BME280;40419;47.438;19.026;2022-07-05T04:40:12;99728.69;;;25.03;54.74
54512;BME280;40419;47.438;19.026;2022-07-05T04:42:38;99718.88;;;24.92;55.99
54512;BME280;40419;47.438;19.026;2022-07-05T04:45:06;99719.19;;;24.90;56.13
54512;BME280;40419;47.438;19.026;2022-07-05T04:47:34;99723.06;;;24.89;57.08
54512;BME280;40419;47.438;19.026;2022-07-05T04:50:00;99716.44;;;24.71;57.56
54512;BME280;40419;47.438;19.026;2022-07-05T04:52:27;99714.72;;;24.75;56.87
54512;BME280;40419;47.438;19.026;2022-07-05T04:54:57;99709.22;;;24.89;56.29
54512;BME280;40419;47.438;19.026;2022-07-05T04:57:26;99708.50;;;24.84;57.19
54512;BME280;40419;47.438;19.026;2022-07-05T04:59:54;99703.06;;;24.92;57.32
54512;BME280;40419;47.438;19.026;2022-07-05T05:02:19;99705.00;;;24.78;57.36
54512;BME280;40419;47.438;19.026;2022-07-05T05:04:45;99706.25;;;24.86;58.53
54512;BME280;40419;47.438;19.026;2022-07-05T05:07:13;99700.31;;;24.92;56.75
54512;BME280;40419;47.438;19.026;2022-07-05T05:09:39;99700.13;;;25.03;55.87
54512;BME280;40419;47.438;19.026;2022-07-05T05:12:05;99702.69;;;24.99;54.31
54512;BME280;40419;47.438;19.026;2022-07-05T05:14:30;99703.91;;;24.93;55.04
54512;BME280;40419;47.438;19.026;2022-07-05T05:16:58;99698.81;;;25.00;54.87
54512;BME280;40419;47.438;19.026;2022-07-05T05:19:24;99693.69;;;25.07;54.11
54512;BME280;40419;47.438;19.026;2022-07-05T05:21:49;99693.00;;;25.16;52.99
54512;BME280;40419;47.438;19.026;2022-07-05T05:24:15;99689.25;;;25.39;51.50
54512;BME280;40419;47.438;19.026;2022-07-05T05:26:40;99690.56;;;25.28;50.44
54512;BME280;40419;47.438;19.026;2022-07-05T05:29:06;99694.81;;;25.39;52.35
54512;BME280;40419;47.438;19.026;2022-07-05T05:31:36;99709.06;;;25.33;52.24
54512;BME280;40419;47.438;19.026;2022-07-05T05:34:01;99709.38;;;25.31;52.08
54512;BME280;40419;47.438;19.026;2022-07-05T05:36:27;99719.75;;;25.39;52.27
54512;BME280;40419;47.438;19.026;2022-07-05T05:38:54;99719.75;;;25.39;52.54
54512;BME280;40419;47.438;19.026;2022-07-05T05:41:25;99718.84;;;25.44;52.26
54512;BME280;40419;47.438;19.026;2022-07-05T05:43:55;99718.13;;;25.52;51.91
54512;BME280;40419;47.438;19.026;2022-07-05T05:46:23;99721.94;;;25.56;53.67
54512;BME280;40419;47.438;19.026;2022-07-05T05:48:49;99725.63;;;25.65;52.79
54512;BME280;40419;47.438;19.026;2022-07-05T05:51:17;99728.41;;;25.65;52.66
54512;BME280;40419;47.438;19.026;2022-07-05T05:53:45;99720.41;;;25.50;52.48
54512;BME280;40419;47.438;19.026;2022-07-05T05:56:13;99723.19;;;25.64;53.15
54512;BME280;40419;47.438;19.026;2022-07-05T05:58:42;99726.16;;;25.81;51.18
54512;BME280;40419;47.438;19.026;2022-07-05T06:01:08;99743.81;;;25.86;50.89
54512;BME280;40419;47.438;19.026;2022-07-05T06:03:33;99739.50;;;25.79;51.26
54512;BME280;40419;47.438;19.026;2022-07-05T06:06:01;99746.09;;;25.83;51.54
54512;BME280;40419;47.438;19.026;2022-07-05T06:08:26;99755.22;;;25.84;50.68
54512;BME280;40419;47.438;19.026;2022-07-05T06:10:57;99751.09;;;25.54;51.39
54512;BME280;40419;47.438;19.026;2022-07-05T06:13:24;99749.03;;;25.59;52.49
54512;BME280;40419;47.438;19.026;2022-07-05T06:15:52;99748.19;;;25.59;51.10
54512;BME280;40419;47.438;19.026;2022-07-05T06:18:20;99747.44;;;25.39;51.63
54512;BME280;40419;47.438;19.026;2022-07-05T06:20:49;99735.50;;;25.25;52.75
54512;BME280;40419;47.438;19.026;2022-07-05T06:23:17;99740.34;;;25.33;52.84
54512;BME280;40419;47.438;19.026;2022-07-05T06:25:47;99740.91;;;25.35;53.57
54512;BME280;40419;47.438;19.026;2022-07-05T06:28:12;99742.16;;;25.57;51.36
54512;BME280;40419;47.438;19.026;2022-07-05T06:30:43;99744.44;;;25.69;51.47
54512;BME280;40419;47.438;19.026;2022-07-05T06:33:09;99726.56;;;25.47;51.75
54512;BME280;40419;47.438;19.026;2022-07-05T06:35:35;99740.00;;;25.54;51.72
54512;BME280;40419;47.438;19.026;2022-07-05T06:38:08;99732.66;;;25.30;51.38
54512;BME280;40419;47.438;19.026;2022-07-05T06:40:39;99737.63;;;25.47;51.26
54512;BME280;40419;47.438;19.026;2022-07-05T06:43:09;99738.66;;;25.65;52.02
54512;BME280;40419;47.438;19.026;2022-07-05T06:45:44;99733.66;;;25.67;51.39
54512;BME280;40419;47.438;19.026;2022-07-05T06:48:13;99741.66;;;25.69;51.69
54512;BME280;40419;47.438;19.026;2022-07-05T06:50:42;99741.03;;;25.72;51.36
54512;BME280;40419;47.438;19.026;2022-07-05T06:53:15;99739.00;;;26.05;51.03
54512;BME280;40419;47.438;19.026;2022-07-05T06:55:46;99736.94;;;26.25;50.88
54512;BME280;40419;47.438;19.026;2022-07-05T06:58:13;99735.63;;;26.59;48.98
54512;BME280;40419;47.438;19.026;2022-07-05T07:00:42;99727.31;;;26.45;49.98
54512;BME280;40419;47.438;19.026;2022-07-05T07:03:10;99726.78;;;26.57;50.34
54512;BME280;40419;47.438;19.026;2022-07-05T07:05:35;99745.25;;;26.75;48.64
54512;BME280;40419;47.438;19.026;2022-07-05T07:08:06;99734.00;;;26.58;49.87
54512;BME280;40419;47.438;19.026;2022-07-05T07:10:53;99741.06;;;26.64;49.59
54512;BME280;40419;47.438;19.026;2022-07-05T07:13:20;99727.31;;;26.59;49.71
54512;BME280;40419;47.438;19.026;2022-07-05T07:15:48;99730.44;;;26.66;49.14
54512;BME280;40419;47.438;19.026;2022-07-05T07:18:14;99730.56;;;26.97;48.80
54512;BME280;40419;47.438;19.026;2022-07-05T07:20:45;99726.19;;;27.05;49.24
54512;BME280;40419;47.438;19.026;2022-07-05T07:23:11;99734.78;;;26.95;49.75
54512;BME280;40419;47.438;19.026;2022-07-05T07:25:38;99723.31;;;26.87;49.25
54512;BME280;40419;47.438;19.026;2022-07-05T07:28:08;99732.59;;;26.83;48.68
54512;BME280;40419;47.438;19.026;2022-07-05T07:30:36;99733.59;;;27.10;48.44
54512;BME280;40419;47.438;19.026;2022-07-05T07:33:06;99733.19;;;27.02;47.68
54512;BME280;40419;47.438;19.026;2022-07-05T07:35:32;99721.81;;;27.04;48.48
54512;BME280;40419;47.438;19.026;2022-07-05T07:37:58;99727.38;;;27.04;49.17
54512;BME280;40419;47.438;19.026;2022-07-05T07:40:23;99718.03;;;26.63;49.46
54512;BME280;40419;47.438;19.026;2022-07-05T07:42:51;99713.59;;;26.76;49.31
54512;BME280;40419;47.438;19.026;2022-07-05T07:45:19;99716.91;;;26.87;48.14
54512;BME280;40419;47.438;19.026;2022-07-05T07:47:49;99714.03;;;26.69;49.83
54512;BME280;40419;47.438;19.026;2022-07-05T07:50:14;99711.53;;;26.31;50.80
54512;BME280;40419;47.438;19.026;2022-07-05T07:52:44;99708.69;;;26.59;49.14
54512;BME280;40419;47.438;19.026;2022-07-05T07:55:11;99718.47;;;26.57;49.16
54512;BME280;40419;47.438;19.026;2022-07-05T07:57:38;99713.63;;;26.26;49.67
54512;BME280;40419;47.438;19.026;2022-07-05T08:00:07;99713.03;;;26.51;48.95
54512;BME280;40419;47.438;19.026;2022-07-05T08:02:39;99713.34;;;26.13;50.20
54512;BME280;40419;47.438;19.026;2022-07-05T08:05:07;99705.81;;;25.86;50.60
54512;BME280;40419;47.438;19.026;2022-07-05T08:07:37;99709.69;;;26.27;50.51
54512;BME280;40419;47.438;19.026;2022-07-05T08:10:04;99709.72;;;26.13;50.79
54512;BME280;40419;47.438;19.026;2022-07-05T08:12:30;99707.72;;;26.41;49.37
54512;BME280;40419;47.438;19.026;2022-07-05T08:14:59;99707.94;;;26.31;50.51
54512;BME280;40419;47.438;19.026;2022-07-05T08:17:26;99710.84;;;26.62;50.48
54512;BME280;40419;47.438;19.026;2022-07-05T08:19:56;99714.22;;;26.73;49.12
54512;BME280;40419;47.438;19.026;2022-07-05T08:22:43;99711.97;;;25.97;50.53
54512;BME280;40419;47.438;19.026;2022-07-05T08:25:14;99716.94;;;26.50;48.98
54512;BME280;40419;47.438;19.026;2022-07-05T08:27:42;99716.59;;;26.15;50.75
54512;BME280;40419;47.438;19.026;2022-07-05T08:30:08;99729.88;;;26.55;49.98
54512;BME280;40419;47.438;19.026;2022-07-05T08:32:36;99723.19;;;26.20;50.61
54512;BME280;40419;47.438;19.026;2022-07-05T08:35:04;99719.53;;;26.47;50.43
54512;BME280;40419;47.438;19.026;2022-07-05T08:37:32;99730.88;;;26.96;50.49
54512;BME280;40419;47.438;19.026;2022-07-05T08:40:08;99728.56;;;27.34;49.55
54512;BME280;40419;47.438;19.026;2022-07-05T08:42:34;99720.38;;;27.38;50.70
54512;BME280;40419;47.438;19.026;2022-07-05T08:45:08;99728.41;;;27.39;49.95
54512;BME280;40419;47.438;19.026;2022-07-05T08:47:37;99726.59;;;27.12;51.43
54512;BME280;40419;47.438;19.026;2022-07-05T08:50:06;99713.97;;;27.06;50.12
54512;BME280;40419;47.438;19.026;2022-07-05T08:52:38;99720.97;;;27.03;51.13
54512;BME280;40419;47.438;19.026;2022-07-05T08:55:06;99726.19;;;27.28;50.28
54512;BME280;40419;47.438;19.026;2022-07-05T08:57:41;99722.75;;;27.31;51.24
54512;BME280;40419;47.438;19.026;2022-07-05T09:00:12;99726.81;;;27.47;50.29
54512;BME280;40419;47.438;19.026;2022-07-05T09:02:40;99725.31;;;27.41;51.18
54512;BME280;40419;47.438;19.026;2022-07-05T09:05:09;99719.59;;;27.46;51.12
54512;BME280;40419;47.438;19.026;2022-07-05T09:07:38;99725.03;;;27.51;51.11
54512;BME280;40419;47.438;19.026;2022-07-05T09:10:10;99722.22;;;27.91;51.67
54512;BME280;40419;47.438;19.026;2022-07-05T09:12:38;99720.66;;;27.99;50.76
54512;BME280;40419;47.438;19.026;2022-07-05T09:15:04;99720.38;;;28.18;49.16
54512;BME280;40419;47.438;19.026;2022-07-05T09:17:30;99727.72;;;27.65;49.94
54512;BME280;40419;47.438;19.026;2022-07-05T09:22:53;99731.59;;;26.65;53.77
54512;BME280;40419;47.438;19.026;2022-07-05T09:25:24;99716.16;;;26.36;55.05
54512;BME280;40419;47.438;19.026;2022-07-05T09:27:51;99716.09;;;26.13;56.44
54512;BME280;40419;47.438;19.026;2022-07-05T09:30:25;99714.13;;;25.86;56.90
54512;BME280;40419;47.438;19.026;2022-07-05T09:33:11;99719.34;;;25.88;57.36
54512;BME280;40419;47.438;19.026;2022-07-05T09:35:41;99722.50;;;26.00;56.24
54512;BME280;40419;47.438;19.026;2022-07-05T09:38:17;99721.94;;;25.98;56.26
54512;BME280;40419;47.438;19.026;2022-07-05T09:43:14;99737.75;;;26.25;54.27
54512;BME280;40419;47.438;19.026;2022-07-05T09:45:56;99741.25;;;26.31;54.66
54512;BME280;40419;47.438;19.026;2022-07-05T09:48:25;99737.47;;;26.13;54.04
54512;BME280;40419;47.438;19.026;2022-07-05T09:50:51;99743.41;;;26.20;53.66
54512;BME280;40419;47.438;19.026;2022-07-05T09:53:20;99761.81;;;25.88;54.37
54512;BME280;40419;47.438;19.026;2022-07-05T09:56:15;99767.75;;;25.35;56.67
54512;BME280;40419;47.438;19.026;2022-07-05T09:58:41;99779.47;;;25.32;58.34
54512;BME280;40419;47.438;19.026;2022-07-05T10:01:27;99785.50;;;24.63;60.59
54512;BME280;40419;47.438;19.026;2022-07-05T10:03:57;99790.75;;;24.64;61.00
54512;BME280;40419;47.438;19.026;2022-07-05T10:06:33;99780.13;;;24.47;64.71
54512;BME280;40419;47.438;19.026;2022-07-05T10:09:01;99795.69;;;23.70;71.30
54512;BME280;40419;47.438;19.026;2022-07-05T10:11:27;99795.88;;;23.15;76.13
54512;BME280;40419;47.438;19.026;2022-07-05T10:13:55;99780.59;;;22.89;79.21
54512;BME280;40419;47.438;19.026;2022-07-05T10:16:22;99767.53;;;22.65;82.40
54512;BME280;40419;47.438;19.026;2022-07-05T10:18:55;99780.69;;;22.13;89.71
54512;BME280;40419;47.438;19.026;2022-07-05T10:21:24;99782.47;;;21.68;92.34
54512;BME280;40419;47.438;19.026;2022-07-05T10:23:51;99791.31;;;21.65;92.28
54512;BME280;40419;47.438;19.026;2022-07-05T10:26:23;99790.44;;;21.80;92.29
54512;BME280;40419;47.438;19.026;2022-07-05T10:28:51;99792.41;;;21.43;95.10
54512;BME280;40419;47.438;19.026;2022-07-05T10:31:23;99785.81;;;21.59;95.98
54512;BME280;40419;47.438;19.026;2022-07-05T10:33:50;99798.22;;;21.36;96.24
54512;BME280;40419;47.438;19.026;2022-07-05T10:36:16;99803.16;;;21.09;96.70
54512;BME280;40419;47.438;19.026;2022-07-05T10:38:45;99797.38;;;21.15;96.72
54512;BME280;40419;47.438;19.026;2022-07-05T10:41:23;99807.00;;;21.13;95.50
54512;BME280;40419;47.438;19.026;2022-07-05T10:43:55;99816.91;;;21.09;95.66
54512;BME280;40419;47.438;19.026;2022-07-05T10:46:39;99825.75;;;21.11;94.96
54512;BME280;40419;47.438;19.026;2022-07-05T10:49:20;99827.34;;;20.86;96.75
54512;BME280;40419;47.438;19.026;2022-07-05T10:51:46;99827.63;;;20.89;94.93
54512;BME280;40419;47.438;19.026;2022-07-05T10:54:12;99834.78;;;20.85;96.22
54512;BME280;40419;47.438;19.026;2022-07-05T11:00:08;99822.94;;;20.90;95.75
54512;BME280;40419;47.438;19.026;2022-07-05T11:02:36;99836.69;;;20.75;96.93
54512;BME280;40419;47.438;19.026;2022-07-05T11:05:02;99844.66;;;20.76;96.11
54512;BME280;40419;47.438;19.026;2022-07-05T11:07:59;99853.94;;;20.65;95.69
54512;BME280;40419;47.438;19.026;2022-07-05T11:10:27;99856.69;;;20.65;94.91
54512;BME280;40419;47.438;19.026;2022-07-05T11:12:55;99861.06;;;20.56;96.08
54512;BME280;40419;47.438;19.026;2022-07-05T11:15:22;99850.59;;;20.58;97.93
54512;BME280;40419;47.438;19.026;2022-07-05T11:17:50;99846.19;;;20.51;97.40
54512;BME280;40419;47.438;19.026;2022-07-05T11:20:36;99847.78;;;20.37;97.92
54512;BME280;40419;47.438;19.026;2022-07-05T11:23:11;99843.09;;;20.32;98.34
54512;BME280;40419;47.438;19.026;2022-07-05T11:25:39;99833.53;;;20.50;99.68
54512;BME280;40419;47.438;19.026;2022-07-05T11:28:16;99837.59;;;20.32;100.00
54512;BME280;40419;47.438;19.026;2022-07-05T11:30:55;99826.06;;;20.41;100.00
54512;BME280;40419;47.438;19.026;2022-07-05T11:33:34;99818.09;;;20.34;100.00
54512;BME280;40419;47.438;19.026;2022-07-05T11:36:02;99815.91;;;20.41;100.00
54512;BME280;40419;47.438;19.026;2022-07-05T11:38:31;99825.09;;;20.09;100.00
54512;BME280;40419;47.438;19.026;2022-07-05T11:41:13;99824.94;;;20.36;100.00
54512;BME280;40419;47.438;19.026;2022-07-05T11:43:42;99828.00;;;20.40;100.00
54512;BME280;40419;47.438;19.026;2022-07-05T11:46:10;99819.81;;;20.56;100.00
54512;BME280;40419;47.438;19.026;2022-07-05T11:48:39;99819.25;;;20.59;100.00
54512;BME280;40419;47.438;19.026;2022-07-05T11:51:15;99815.22;;;20.82;100.00
54512;BME280;40419;47.438;19.026;2022-07-05T11:53:41;99816.34;;;20.96;100.00
54512;BME280;40419;47.438;19.026;2022-07-05T11:56:09;99813.59;;;21.27;100.00
54512;BME280;40419;47.438;19.026;2022-07-05T11:58:34;99807.25;;;21.06;100.00
54512;BME280;40419;47.438;19.026;2022-07-05T12:01:00;99810.59;;;21.08;100.00
54512;BME280;40419;47.438;19.026;2022-07-05T12:03:27;99806.19;;;21.02;99.15
54512;BME280;40419;47.438;19.026;2022-07-05T12:05:53;99802.81;;;20.74;98.92
54512;BME280;40419;47.438;19.026;2022-07-05T12:08:22;99806.72;;;20.94;99.30
54512;BME280;40419;47.438;19.026;2022-07-05T12:10:51;99814.94;;;20.73;100.00
54512;BME280;40419;47.438;19.026;2022-07-05T12:13:47;99803.72;;;21.16;99.61
54512;BME280;40419;47.438;19.026;2022-07-05T12:16:16;99788.00;;;21.47;97.89
54512;BME280;40419;47.438;19.026;2022-07-05T12:18:54;99780.88;;;21.56;92.90
54512;BME280;40419;47.438;19.026;2022-07-05T12:21:26;99770.94;;;21.40;90.73
54512;BME280;40419;47.438;19.026;2022-07-05T12:23:54;99781.97;;;21.35;94.39
54512;BME280;40419;47.438;19.026;2022-07-05T12:26:21;99789.69;;;21.28;94.14
54512;BME280;40419;47.438;19.026;2022-07-05T12:28:49;99786.91;;;21.17;92.92
54512;BME280;40419;47.438;19.026;2022-07-05T12:33:41;99792.69;;;20.90;98.89
54512;BME280;40419;47.438;19.026;2022-07-05T12:36:19;99791.72;;;20.48;99.50
54512;BME280;40419;47.438;19.026;2022-07-05T12:38:58;99791.72;;;20.43;100.00
54512;BME280;40419;47.438;19.026;2022-07-05T12:41:24;99786.78;;;20.50;99.94
54512;BME280;40419;47.438;19.026;2022-07-05T12:43:58;99791.94;;;20.31;97.79
54512;BME280;40419;47.438;19.026;2022-07-05T12:46:38;99798.00;;;20.33;100.00
54512;BME280;40419;47.438;19.026;2022-07-05T12:49:06;99793.34;;;20.34;100.00
54512;BME280;40419;47.438;19.026;2022-07-05T12:51:38;99778.81;;;20.54;100.00
54512;BME280;40419;47.438;19.026;2022-07-05T12:54:18;99774.22;;;20.70;100.00
54512;BME280;40419;47.438;19.026;2022-07-05T12:57:05;99777.81;;;20.81;100.00
54512;BME280;40419;47.438;19.026;2022-07-05T13:00:05;99770.66;;;20.75;100.00
54512;BME280;40419;47.438;19.026;2022-07-05T13:02:41;99766.00;;;20.96;99.60
54512;BME280;40419;47.438;19.026;2022-07-05T13:05:24;99765.16;;;21.05;99.46
54512;BME280;40419;47.438;19.026;2022-07-05T13:07:54;99752.50;;;20.94;100.00
54512;BME280;40419;47.438;19.026;2022-07-05T13:10:22;99759.66;;;20.90;100.00
54512;BME280;40419;47.438;19.026;2022-07-05T13:12:48;99755.25;;;21.04;100.00
54512;BME280;40419;47.438;19.026;2022-07-05T13:15:14;99744.25;;;20.89;100.00
54512;BME280;40419;47.438;19.026;2022-07-05T13:17:46;99737.94;;;21.09;100.00